Time;durP1;ratioP1;P1;durP2;ratioP2;P2;SDS_P1;SDS_P2;PMS_P1;PMS_P2;Temp;Humidity;BMP_temperature;BMP_pressure;BME280_temperature;BME280_humidity;BME280_pressure;Samples;Min_cycle;Max_cycle;Signal;HPM_P1;HPM_P2
2021/01/26 00:01:20;;;;;;;13.77;6.30;;;-1.20;99.90;;;;;;5041308;28;20032;-75
2021/01/26 00:03:46;;;;;;;15.13;6.82;;;-1.10;99.90;;;;;;5034721;28;20049;-76
2021/01/26 00:06:12;;;;;;;14.45;6.80;;;-1.10;99.90;;;;;;5009565;28;20080;-75
2021/01/26 00:08:38;;;;;;;11.85;6.68;;;-1.10;99.90;;;;;;5001438;28;20609;-75
2021/01/26 00:11:05;;;;;;;13.25;6.82;;;-1.20;99.90;;;;;;5038404;28;20047;-75
2021/01/26 00:13:32;;;;;;;15.55;7.20;;;-1.10;99.90;;;;;;5015383;28;20501;-75
2021/01/26 00:15:59;;;;;;;12.38;6.60;;;-1.10;99.90;;;;;;5026355;28;20029;-75
2021/01/26 00:18:24;;;;;;;12.70;6.82;;;-1.10;99.90;;;;;;5030837;28;20074;-75
2021/01/26 00:20:50;;;;;;;11.23;6.13;;;-1.10;99.90;;;;;;5031580;28;20033;-75
2021/01/26 00:23:17;;;;;;;12.20;6.38;;;-1.10;99.90;;;;;;5028967;28;20029;-76
2021/01/26 00:25:43;;;;;;;11.68;6.38;;;-1.10;99.90;;;;;;5041424;28;20505;-75
2021/01/26 00:28:12;;;;;;;16.02;6.85;;;-1.00;99.90;;;;;;5042917;28;20425;-76
2021/01/26 00:30:40;;;;;;;16.65;7.53;;;-1.10;99.90;;;;;;5028959;28;20087;-76
2021/01/26 00:33:18;;;;;;;14.35;6.22;;;-1.00;99.90;;;;;;5049399;28;20049;-76
2021/01/26 00:35:44;;;;;;;12.70;6.50;;;-1.10;99.90;;;;;;5031203;28;20130;-75
2021/01/26 00:38:10;;;;;;;16.85;7.53;;;-1.10;99.90;;;;;;5016257;28;20034;-76
2021/01/26 00:40:38;;;;;;;13.82;6.85;;;-1.10;99.90;;;;;;5018706;28;20021;-76
2021/01/26 00:43:06;;;;;;;19.15;8.23;;;-1.10;99.90;;;;;;5029833;28;20033;-75
2021/01/26 00:45:31;;;;;;;14.93;7.40;;;-1.10;99.90;;;;;;5029527;28;20041;-75
2021/01/26 00:47:57;;;;;;;11.57;6.85;;;-1.10;99.90;;;;;;5010674;28;20048;-76
2021/01/26 00:50:24;;;;;;;13.32;7.10;;;-1.10;99.90;;;;;;5011823;28;20061;-75
2021/01/26 00:52:50;;;;;;;14.52;7.63;;;-1.10;99.90;;;;;;5029528;28;20034;-76
2021/01/26 00:55:25;;;;;;;12.77;7.45;;;-1.10;99.90;;;;;;5011921;28;20038;-75
2021/01/26 00:57:51;;;;;;;14.88;7.32;;;-1.10;99.90;;;;;;5013514;28;20435;-75
2021/01/26 01:00:24;;;;;;;12.93;6.57;;;-1.20;99.90;;;;;;5015536;28;20025;-74
2021/01/26 01:02:51;;;;;;;13.30;6.97;;;-1.20;99.90;;;;;;5015339;28;20036;-76
2021/01/26 01:05:16;;;;;;;12.98;7.18;;;-1.20;99.90;;;;;;4998968;28;20041;-75
2021/01/26 01:07:43;;;;;;;11.45;6.72;;;-1.20;99.90;;;;;;5014031;28;20038;-76
2021/01/26 01:10:12;;;;;;;12.27;6.40;;;-1.20;99.90;;;;;;5033252;28;20025;-76
2021/01/26 01:12:39;;;;;;;11.93;6.63;;;-1.20;99.90;;;;;;5033000;28;20135;-75
2021/01/26 01:15:06;;;;;;;12.55;7.00;;;-1.20;99.90;;;;;;5032688;28;20038;-75
2021/01/26 01:17:32;;;;;;;15.23;7.03;;;-1.20;99.90;;;;;;4997724;28;20371;-75
2021/01/26 01:19:57;;;;;;;15.55;7.30;;;-1.20;99.90;;;;;;5015137;28;20040;-76
2021/01/26 01:22:23;;;;;;;13.70;7.10;;;-1.20;99.90;;;;;;5032851;28;20065;-75
2021/01/26 01:24:49;;;;;;;14.88;7.30;;;-1.20;99.90;;;;;;5026771;28;20029;-74
2021/01/26 01:27:14;;;;;;;14.90;7.75;;;-1.20;99.90;;;;;;5033326;28;20048;-74
2021/01/26 01:29:40;;;;;;;13.98;7.03;;;-1.20;99.90;;;;;;5034795;28;20068;-75
2021/01/26 01:32:06;;;;;;;14.00;7.82;;;-1.20;99.90;;;;;;5034898;28;20064;-76
2021/01/26 01:34:31;;;;;;;14.50;7.50;;;-1.20;99.90;;;;;;5052481;28;20624;-76
2021/01/26 01:36:57;;;;;;;15.10;7.32;;;-1.20;99.90;;;;;;5031751;28;20029;-75
2021/01/26 01:39:23;;;;;;;15.00;7.75;;;-1.20;99.90;;;;;;4998849;28;20033;-74
2021/01/26 01:41:49;;;;;;;15.07;7.55;;;-1.30;99.90;;;;;;5018663;28;20028;-75
2021/01/26 01:44:15;;;;;;;17.15;7.50;;;-1.30;99.90;;;;;;5032281;28;20029;-75
2021/01/26 01:46:52;;;;;;;13.95;7.50;;;-1.30;99.90;;;;;;5030855;28;20045;-75
2021/01/26 01:49:25;;;;;;;16.30;8.43;;;-1.30;99.90;;;;;;5014392;28;20029;-75
2021/01/26 01:51:52;;;;;;;17.92;8.90;;;-1.30;99.90;;;;;;5032100;28;20108;-76
2021/01/26 01:54:41;;;;;;;15.63;8.15;;;-1.30;99.90;;;;;;4998450;28;20034;-76
2021/01/26 01:57:19;;;;;;;16.60;8.23;;;-1.30;99.90;;;;;;5030274;28;20045;-76
2021/01/26 01:59:48;;;;;;;18.42;8.82;;;-1.30;99.90;;;;;;5023023;28;20025;-73
2021/01/26 02:02:15;;;;;;;15.45;7.88;;;-1.40;99.90;;;;;;5007533;28;20113;-76
2021/01/26 02:04:41;;;;;;;17.17;8.30;;;-1.40;99.90;;;;;;5031588;28;20025;-75
2021/01/26 02:07:07;;;;;;;21.70;9.43;;;-1.40;99.90;;;;;;5010736;28;20549;-75
2021/01/26 02:09:39;;;;;;;20.30;9.57;;;-1.40;99.90;;;;;;5031256;28;20108;-75
2021/01/26 02:12:06;;;;;;;20.95;9.32;;;-1.40;99.90;;;;;;5014122;28;20037;-75
2021/01/26 02:14:35;;;;;;;19.40;8.70;;;-1.40;99.90;;;;;;5031670;28;20096;-75
2021/01/26 02:17:19;;;;;;;19.13;10.02;;;-1.50;99.90;;;;;;5030493;28;20061;-75
2021/01/26 02:20:19;;;;;;;20.52;10.02;;;-1.60;99.90;;;;;;5021967;28;20057;-76
2021/01/26 02:23:09;;;;;;;20.38;8.93;;;-1.60;99.90;;;;;;5011912;28;20068;-76
2021/01/26 02:26:00;;;;;;;21.08;9.70;;;-1.80;99.90;;;;;;5007094;28;20116;-75
2021/01/26 02:28:56;;;;;;;21.75;9.45;;;-1.80;99.90;;;;;;5028029;28;20194;-75
2021/01/26 02:31:44;;;;;;;20.65;9.65;;;-1.90;99.90;;;;;;5031630;28;20030;-75
2021/01/26 02:34:43;;;;;;;18.08;9.15;;;-2.00;99.90;;;;;;5013689;28;20084;-76
2021/01/26 02:37:18;;;;;;;20.75;9.52;;;-2.10;99.90;;;;;;5027733;28;20025;-75
2021/01/26 02:39:58;;;;;;;18.35;8.73;;;-2.20;99.90;;;;;;5011717;28;20417;-75
2021/01/26 02:42:23;;;;;;;18.13;8.18;;;-2.20;99.90;;;;;;5012460;28;20025;-75
2021/01/26 02:44:56;;;;;;;20.02;9.02;;;-2.20;99.90;;;;;;5013024;28;20426;-75
2021/01/26 02:48:00;;;;;;;19.50;9.45;;;-2.20;99.90;;;;;;5029947;28;20584;-76
2021/01/26 02:50:49;;;;;;;13.48;7.75;;;-2.20;99.90;;;;;;5003659;28;20043;-75
2021/01/26 02:53:40;;;;;;;18.88;8.93;;;-2.10;99.90;;;;;;5031120;28;20652;-75
2021/01/26 02:56:28;;;;;;;19.42;9.35;;;-2.10;99.90;;;;;;5029849;28;20140;-75
2021/01/26 02:59:22;;;;;;;17.48;8.32;;;-2.10;99.90;;;;;;5031034;28;20066;-75
2021/01/26 03:01:58;;;;;;;18.13;8.40;;;-2.00;99.90;;;;;;5029132;28;20037;-75
2021/01/26 03:04:38;;;;;;;19.90;9.35;;;-2.10;99.90;;;;;;5012913;28;20022;-74
2021/01/26 03:07:04;;;;;;;15.98;8.23;;;-2.10;99.90;;;;;;5029359;28;20013;-76
2021/01/26 03:09:40;;;;;;;16.48;7.95;;;-2.10;99.90;;;;;;5030561;28;20049;-75
2021/01/26 03:12:18;;;;;;;14.68;7.70;;;-2.10;99.90;;;;;;5012972;28;20040;-76
2021/01/26 03:14:49;;;;;;;15.45;7.68;;;-2.10;99.90;;;;;;5013374;28;20147;-75
2021/01/26 03:17:25;;;;;;;15.35;7.15;;;-2.10;99.90;;;;;;5029212;28;20044;-75
2021/01/26 03:19:53;;;;;;;15.32;7.72;;;-2.10;99.90;;;;;;5012835;28;20394;-74
2021/01/26 03:22:22;;;;;;;16.27;7.95;;;-2.10;99.90;;;;;;5013209;28;20104;-75
2021/01/26 03:24:52;;;;;;;14.63;7.18;;;-2.10;99.90;;;;;;5030406;28;20509;-74
2021/01/26 03:27:22;;;;;;;14.07;6.93;;;-2.10;99.90;;;;;;4995285;28;20025;-76
2021/01/26 03:29:53;;;;;;;12.88;6.78;;;-2.10;99.90;;;;;;5030621;28;20034;-75
2021/01/26 03:32:24;;;;;;;14.77;7.13;;;-2.00;99.90;;;;;;5030622;28;20025;-74
2021/01/26 03:34:50;;;;;;;15.30;7.38;;;-1.90;99.90;;;;;;5012514;28;20052;-74
2021/01/26 03:37:16;;;;;;;15.23;7.82;;;-1.90;99.90;;;;;;5008549;28;20021;-74
2021/01/26 03:39:42;;;;;;;12.85;7.40;;;-1.90;99.90;;;;;;5029963;28;20120;-74
2021/01/26 03:42:07;;;;;;;12.93;7.13;;;-1.80;99.90;;;;;;5030116;28;20029;-75
2021/01/26 03:44:33;;;;;;;17.98;8.35;;;-1.80;99.90;;;;;;5030476;28;20481;-75
2021/01/26 03:47:12;;;;;;;14.80;8.10;;;-1.80;99.90;;;;;;5016552;28;20044;-75
2021/01/26 03:49:52;;;;;;;14.50;8.07;;;-1.70;99.90;;;;;;5029989;28;20029;-75
2021/01/26 03:52:45;;;;;;;15.85;8.10;;;-1.70;99.90;;;;;;5030333;28;20039;-76
2021/01/26 03:55:29;;;;;;;16.83;8.43;;;-1.60;99.90;;;;;;5029925;28;20096;-75
2021/01/26 03:58:19;;;;;;;16.20;8.20;;;-1.60;99.90;;;;;;5027825;28;20026;-75
2021/01/26 04:01:04;;;;;;;16.35;7.70;;;-1.60;99.90;;;;;;5009373;28;20025;-76
2021/01/26 04:03:50;;;;;;;14.70;6.93;;;-1.60;99.90;;;;;;5030332;28;20454;-75
2021/01/26 04:06:28;;;;;;;13.80;7.47;;;-1.60;99.90;;;;;;5011353;28;20040;-75
2021/01/26 04:08:57;;;;;;;14.50;7.63;;;-1.60;99.90;;;;;;5012288;28;20025;-75
2021/01/26 04:11:27;;;;;;;13.68;7.57;;;-1.50;99.90;;;;;;5030060;28;20040;-75
2021/01/26 04:14:07;;;;;;;18.50;8.65;;;-1.50;99.90;;;;;;5012556;28;20030;-76
2021/01/26 04:16:41;;;;;;;20.95;8.73;;;-1.40;99.90;;;;;;5028692;28;20797;-75
2021/01/26 04:19:10;;;;;;;16.10;8.32;;;-1.40;99.90;;;;;;5021951;28;20030;-75
2021/01/26 04:21:38;;;;;;;14.52;8.07;;;-1.40;99.90;;;;;;5012678;28;20383;-75
2021/01/26 04:24:04;;;;;;;15.50;8.18;;;-1.40;99.90;;;;;;5029986;28;20044;-75
2021/01/26 04:26:33;;;;;;;23.02;10.80;;;-1.50;99.90;;;;;;5011414;28;20452;-75
2021/01/26 04:28:58;;;;;;;15.85;8.40;;;-1.40;99.90;;;;;;5029907;28;20034;-75
2021/01/26 04:31:24;;;;;;;16.75;8.77;;;-1.40;99.90;;;;;;5031315;28;20025;-75
2021/01/26 04:33:50;;;;;;;16.85;8.25;;;-1.40;99.90;;;;;;5033872;28;20424;-75
2021/01/26 04:36:18;;;;;;;15.38;8.05;;;-1.40;99.90;;;;;;5014983;28;20032;-75
2021/01/26 04:38:44;;;;;;;15.75;8.40;;;-1.30;99.90;;;;;;5016043;28;20569;-75
2021/01/26 04:41:32;;;;;;;17.52;9.05;;;-1.30;99.90;;;;;;5033496;28;20037;-75
2021/01/26 04:44:21;;;;;;;15.80;8.27;;;-1.40;99.90;;;;;;5033907;28;20036;-75
2021/01/26 04:46:53;;;;;;;16.45;8.15;;;-1.40;99.90;;;;;;5007068;28;20040;-74
2021/01/26 04:49:30;;;;;;;14.98;7.65;;;-1.30;99.90;;;;;;5033054;28;20033;-75
2021/01/26 04:52:13;;;;;;;14.95;7.85;;;-1.30;99.90;;;;;;5019007;28;20658;-74
2021/01/26 04:55:00;;;;;;;15.13;8.07;;;-1.30;99.90;;;;;;5015398;28;20040;-75
2021/01/26 04:57:51;;;;;;;15.60;8.48;;;-1.20;99.90;;;;;;5025656;28;20041;-75
2021/01/26 05:00:45;;;;;;;13.07;6.88;;;-1.20;99.90;;;;;;5031105;28;20583;-75
2021/01/26 05:03:20;;;;;;;14.93;8.55;;;-1.20;99.90;;;;;;5020057;28;20034;-75
2021/01/26 05:05:49;;;;;;;15.65;8.27;;;-1.20;99.90;;;;;;5007970;28;20037;-75
2021/01/26 05:08:22;;;;;;;15.77;8.63;;;-1.20;99.90;;;;;;4994332;28;20163;-74
2021/01/26 05:10:51;;;;;;;15.20;8.30;;;-1.20;99.90;;;;;;5015107;28;20048;-75
2021/01/26 05:13:27;;;;;;;15.73;8.57;;;-1.20;99.90;;;;;;5033167;28;20049;-74
2021/01/26 05:16:14;;;;;;;14.77;7.45;;;-1.20;99.90;;;;;;5033289;28;20048;-74
2021/01/26 05:18:47;;;;;;;13.15;7.53;;;-1.20;99.90;;;;;;5033067;28;20022;-74
2021/01/26 05:21:21;;;;;;;14.55;7.70;;;-1.20;99.90;;;;;;4998960;28;20040;-74
2021/01/26 05:23:55;;;;;;;13.18;7.70;;;-1.20;99.90;;;;;;5032968;28;20503;-75
2021/01/26 05:26:21;;;;;;;13.45;7.40;;;-1.20;99.90;;;;;;4997772;28;20037;-74
2021/01/26 05:28:47;;;;;;;12.05;7.20;;;-1.10;99.90;;;;;;5032232;28;20033;-75
2021/01/26 05:31:26;;;;;;;13.30;8.15;;;-1.10;99.90;;;;;;5032669;28;20038;-75
2021/01/26 05:33:53;;;;;;;13.38;7.03;;;-1.10;99.90;;;;;;5030800;28;20045;-76
2021/01/26 05:36:19;;;;;;;15.65;7.88;;;-1.10;99.90;;;;;;5031497;28;20040;-75
2021/01/26 05:38:44;;;;;;;13.43;7.18;;;-1.10;99.90;;;;;;5031368;28;20022;-75
2021/01/26 05:41:13;;;;;;;12.02;7.28;;;-1.10;99.90;;;;;;5032300;28;20498;-75
2021/01/26 05:43:40;;;;;;;11.93;6.78;;;-1.10;99.90;;;;;;5031507;28;20485;-74
2021/01/26 05:46:15;;;;;;;13.32;7.47;;;-1.10;99.90;;;;;;5032255;28;20124;-75
2021/01/26 05:48:59;;;;;;;13.50;7.40;;;-1.10;99.90;;;;;;5031980;28;20041;-74
2021/01/26 05:51:26;;;;;;;12.52;6.82;;;-1.10;99.90;;;;;;4993851;28;20046;-75
2021/01/26 05:54:05;;;;;;;14.13;7.95;;;-1.10;99.90;;;;;;5010231;28;20029;-75
2021/01/26 05:56:33;;;;;;;13.02;7.30;;;-1.00;99.90;;;;;;5030441;28;20037;-74
2021/01/26 05:59:33;;;;;;;14.63;7.25;;;-1.00;99.90;;;;;;5031918;28;20034;-75
2021/01/26 06:02:16;;;;;;;13.93;7.85;;;-1.00;99.90;;;;;;5031009;28;20025;-74
2021/01/26 06:04:42;;;;;;;16.45;7.97;;;-1.00;99.90;;;;;;5030420;28;20112;-74
2021/01/26 06:07:24;;;;;;;16.27;7.97;;;-1.00;99.90;;;;;;5011972;28;20457;-75
2021/01/26 06:09:50;;;;;;;14.32;7.70;;;-1.00;99.90;;;;;;5029413;28;20037;-75
2021/01/26 06:12:22;;;;;;;16.85;7.82;;;-1.00;99.90;;;;;;5014074;28;20026;-75
2021/01/26 06:15:07;;;;;;;14.75;8.43;;;-1.00;99.90;;;;;;5011574;28;20044;-75
2021/01/26 06:17:36;;;;;;;13.77;8.02;;;-1.00;99.90;;;;;;5013076;28;20038;-74
2021/01/26 06:20:23;;;;;;;16.77;7.90;;;-1.00;99.90;;;;;;4997267;28;20032;-75
2021/01/26 06:22:51;;;;;;;16.88;8.23;;;-1.00;99.90;;;;;;5011393;28;20075;-75
2021/01/26 06:25:32;;;;;;;13.07;7.38;;;-1.00;99.90;;;;;;5013939;28;20563;-75
2021/01/26 06:28:25;;;;;;;15.10;8.25;;;-0.90;99.90;;;;;;5029233;28;20033;-75
2021/01/26 06:30:53;;;;;;;13.98;8.43;;;-0.90;99.90;;;;;;5031310;28;20053;-74
2021/01/26 06:33:54;;;;;;;15.93;8.10;;;-0.90;99.90;;;;;;5031457;28;20033;-75
2021/01/26 06:36:51;;;;;;;16.52;8.00;;;-0.90;99.90;;;;;;5012748;28;20033;-75
2021/01/26 06:39:29;;;;;;;13.77;7.55;;;-0.90;99.90;;;;;;5027567;28;20441;-74
2021/01/26 06:42:32;;;;;;;13.38;7.75;;;-0.90;99.90;;;;;;4994069;28;20125;-75
2021/01/26 06:45:16;;;;;;;16.88;8.57;;;-0.90;99.90;;;;;;5011493;28;20032;-74
2021/01/26 06:47:55;;;;;;;13.25;7.90;;;-0.80;99.90;;;;;;5010295;28;20037;-75
2021/01/26 06:51:16;;;;;;;15.35;7.57;;;-0.80;99.90;;;;;;4993971;28;20065;-75
2021/01/26 06:53:48;;;;;;;17.83;8.73;;;-0.80;99.90;;;;;;5039054;28;20041;-75
2021/01/26 06:56:45;;;;;;;15.57;7.75;;;-0.80;99.90;;;;;;5039324;28;20490;-74
2021/01/26 06:59:25;;;;;;;17.15;7.90;;;-0.80;99.90;;;;;;5032996;28;20120;-73
2021/01/26 07:02:03;;;;;;;14.63;8.48;;;-0.80;99.90;;;;;;5016781;28;20609;-75
2021/01/26 07:04:40;;;;;;;11.45;7.00;;;-0.80;99.90;;;;;;5019990;28;20418;-75
2021/01/26 07:07:32;;;;;;;15.48;7.68;;;-0.80;99.90;;;;;;5038978;28;20040;-75
2021/01/26 07:10:07;;;;;;;13.63;7.53;;;-0.70;99.90;;;;;;5050273;28;20033;-74
2021/01/26 07:12:42;;;;;;;14.90;8.18;;;-0.70;99.90;;;;;;5038269;28;20024;-74
2021/01/26 07:15:21;;;;;;;13.23;7.88;;;-0.70;99.90;;;;;;5041676;28;20025;-75
2021/01/26 07:17:53;;;;;;;14.32;6.75;;;-0.70;99.90;;;;;;5046347;28;20156;-75
2021/01/26 07:20:30;;;;;;;17.58;7.90;;;-0.60;99.90;;;;;;5027236;28;20040;-75
2021/01/26 07:23:28;;;;;;;16.42;7.18;;;-0.60;99.90;;;;;;5041103;28;20431;-74
2021/01/26 07:26:13;;;;;;;12.82;6.93;;;-0.60;99.90;;;;;;5021194;28;20026;-74
2021/01/26 07:29:00;;;;;;;14.48;7.30;;;-0.60;99.90;;;;;;5022296;28;20022;-74
2021/01/26 07:31:51;;;;;;;11.63;6.05;;;-0.60;99.90;;;;;;5024476;28;20033;-75
2021/01/26 07:34:49;;;;;;;12.90;7.30;;;-0.60;99.90;;;;;;5028095;28;20045;-74
2021/01/26 07:37:27;;;;;;;13.80;6.97;;;-0.50;99.90;;;;;;5024435;28;20054;-74
2021/01/26 07:40:06;;;;;;;12.80;6.55;;;-0.50;99.90;;;;;;5010742;28;20032;-75
2021/01/26 07:42:50;;;;;;;14.60;7.07;;;-0.50;99.90;;;;;;5021688;28;20033;-74
2021/01/26 07:45:30;;;;;;;11.82;6.80;;;-0.50;99.90;;;;;;5036265;28;20032;-74
2021/01/26 07:48:09;;;;;;;13.55;6.32;;;-0.40;99.90;;;;;;5005768;28;20030;-74
2021/01/26 07:50:44;;;;;;;11.57;6.25;;;-0.40;99.90;;;;;;5023327;28;20025;-74
2021/01/26 07:53:18;;;;;;;13.50;6.95;;;-0.40;99.90;;;;;;5007962;28;20064;-74
2021/01/26 07:55:51;;;;;;;13.98;6.22;;;-0.30;99.90;;;;;;5012288;28;20077;-74
2021/01/26 07:58:17;;;;;;;12.10;6.68;;;-0.30;99.90;;;;;;5028814;28;20033;-73
2021/01/26 08:00:49;;;;;;;9.35;5.35;;;-0.30;99.90;;;;;;5022034;28;20030;-74
2021/01/26 08:03:22;;;;;;;8.82;5.30;;;-0.20;99.90;;;;;;5029747;28;20529;-73
2021/01/26 08:05:51;;;;;;;11.98;6.20;;;-0.20;99.90;;;;;;5025168;28;20033;-74
2021/01/26 08:08:26;;;;;;;8.55;5.18;;;-0.10;99.90;;;;;;5028303;28;20503;-74
2021/01/26 08:11:04;;;;;;;9.68;5.63;;;-0.10;99.90;;;;;;5028850;28;20057;-75
2021/01/26 08:13:30;;;;;;;13.05;6.18;;;0.00;99.90;;;;;;5025713;28;20155;-74
2021/01/26 08:16:08;;;;;;;8.40;5.43;;;0.00;99.90;;;;;;5006592;28;20124;-74
2021/01/26 08:18:34;;;;;;;12.18;5.50;;;0.00;99.90;;;;;;5019160;28;20022;-74
2021/01/26 08:21:26;;;;;;;8.90;5.22;;;0.00;99.90;;;;;;4996475;28;20029;-74
2021/01/26 08:23:51;;;;;;;9.48;4.85;;;0.00;99.90;;;;;;5014341;28;20026;-74
2021/01/26 08:26:18;;;;;;;8.95;5.32;;;0.10;99.90;;;;;;4995596;28;20030;-75
2021/01/26 08:28:48;;;;;;;10.45;6.13;;;0.10;99.90;;;;;;5014037;28;20061;-75
2021/01/26 08:31:38;;;;;;;10.48;5.55;;;0.10;99.90;;;;;;5024582;28;20378;-75
2021/01/26 08:34:23;;;;;;;10.32;5.68;;;0.10;99.90;;;;;;5017976;28;20025;-74
2021/01/26 08:37:07;;;;;;;8.10;5.10;;;0.20;99.90;;;;;;5029736;28;20136;-75
2021/01/26 08:39:46;;;;;;;9.15;5.40;;;0.20;99.90;;;;;;5027169;28;20021;-75
2021/01/26 08:42:40;;;;;;;7.85;5.32;;;0.20;99.90;;;;;;5024052;28;20099;-74
2021/01/26 08:45:14;;;;;;;8.77;5.32;;;0.20;99.90;;;;;;5033413;28;20524;-75
2021/01/26 08:47:48;;;;;;;8.73;5.25;;;0.20;99.90;;;;;;5032278;28;20033;-75
2021/01/26 08:50:31;;;;;;;7.60;5.03;;;0.20;99.90;;;;;;5033358;28;20033;-75
2021/01/26 08:53:22;;;;;;;8.57;4.75;;;0.20;99.90;;;;;;5032133;28;20082;-75
2021/01/26 08:55:58;;;;;;;6.82;4.65;;;0.20;99.90;;;;;;5031978;28;20069;-73
2021/01/26 08:58:42;;;;;;;9.45;5.13;;;0.30;99.90;;;;;;5031926;28;20036;-74
2021/01/26 09:01:10;;;;;;;8.43;4.90;;;0.30;99.90;;;;;;5018361;28;20033;-74
2021/01/26 09:03:39;;;;;;;9.32;5.28;;;0.30;99.90;;;;;;5030470;28;20966;-74
2021/01/26 09:06:10;;;;;;;10.02;5.07;;;0.30;99.90;;;;;;5031909;28;20466;-75
2021/01/26 09:08:41;;;;;;;8.27;4.53;;;0.30;99.90;;;;;;5032163;28;20026;-75
2021/01/26 09:11:19;;;;;;;7.63;4.30;;;0.30;99.90;;;;;;5028217;28;20033;-74
2021/01/26 09:13:47;;;;;;;5.28;3.88;;;0.30;99.90;;;;;;5015678;28;20402;-75
2021/01/26 09:16:24;;;;;;;7.40;4.22;;;0.30;99.90;;;;;;5031267;28;20028;-74
2021/01/26 09:19:11;;;;;;;7.43;4.70;;;0.30;99.90;;;;;;5031711;28;20116;-75
2021/01/26 09:21:36;;;;;;;6.32;4.22;;;0.40;99.90;;;;;;5015030;28;20493;-75
2021/01/26 09:24:02;;;;;;;9.07;4.60;;;0.40;99.90;;;;;;5041432;28;20076;-75
2021/01/26 09:26:29;;;;;;;8.70;5.13;;;0.40;99.90;;;;;;5031388;28;20057;-74
2021/01/26 09:28:55;;;;;;;7.60;4.60;;;0.50;99.90;;;;;;5032331;28;20068;-75
2021/01/26 09:31:27;;;;;;;8.45;4.50;;;0.50;99.90;;;;;;5005887;28;20036;-72
2021/01/26 09:34:05;;;;;;;7.88;4.68;;;0.50;99.90;;;;;;5036351;28;20037;-72
2021/01/26 09:36:34;;;;;;;7.07;4.03;;;0.50;99.90;;;;;;5014367;28;20490;-74
2021/01/26 09:39:09;;;;;;;8.00;4.13;;;0.60;99.90;;;;;;5021991;28;20405;-74
2021/01/26 09:41:36;;;;;;;6.72;4.07;;;0.60;99.90;;;;;;5026107;28;20404;-74
2021/01/26 09:44:18;;;;;;;6.60;4.03;;;0.60;99.90;;;;;;5042141;28;20044;-75
2021/01/26 09:46:51;;;;;;;5.65;4.20;;;0.60;99.90;;;;;;5003354;28;20033;-75
2021/01/26 09:49:27;;;;;;;7.90;4.30;;;0.70;99.90;;;;;;5042193;28;20032;-73
2021/01/26 09:51:56;;;;;;;6.28;3.78;;;0.70;99.90;;;;;;5014271;28;20076;-74
2021/01/26 09:54:30;;;;;;;7.30;4.18;;;0.70;99.90;;;;;;5019835;28;20091;-73
2021/01/26 09:56:57;;;;;;;7.40;4.13;;;0.70;99.90;;;;;;5036678;28;20568;-73
2021/01/26 09:59:25;;;;;;;7.35;3.72;;;0.80;99.90;;;;;;5046052;28;20528;-75
2021/01/26 10:01:51;;;;;;;5.43;3.45;;;0.80;99.90;;;;;;5040733;28;20025;-74
2021/01/26 10:04:20;;;;;;;4.50;3.33;;;0.80;99.90;;;;;;4998860;28;20055;-75
2021/01/26 10:06:47;;;;;;;5.10;3.67;;;0.80;99.90;;;;;;5032089;28;20043;-72
2021/01/26 10:09:29;;;;;;;5.45;3.65;;;0.90;99.90;;;;;;5012333;28;20426;-73
2021/01/26 10:12:26;;;;;;;4.47;3.17;;;0.90;99.90;;;;;;5023996;28;20063;-73
2021/01/26 10:15:10;;;;;;;5.63;3.58;;;0.90;99.90;;;;;;5036813;28;20388;-73
2021/01/26 10:17:48;;;;;;;6.38;3.40;;;0.90;99.90;;;;;;5035139;28;20029;-74
2021/01/26 10:20:24;;;;;;;7.18;3.85;;;1.00;99.90;;;;;;5037333;28;20029;-74
2021/01/26 10:23:00;;;;;;;4.05;3.22;;;1.00;99.90;;;;;;5021619;28;20017;-73
2021/01/26 10:25:26;;;;;;;6.63;3.42;;;1.00;99.90;;;;;;5012319;28;20563;-74
2021/01/26 10:27:51;;;;;;;3.83;2.90;;;1.10;99.90;;;;;;5009309;28;20029;-72
2021/01/26 10:30:26;;;;;;;4.90;2.95;;;1.10;99.90;;;;;;5027545;28;20061;-75
2021/01/26 10:32:52;;;;;;;7.45;2.90;;;1.10;99.90;;;;;;5021955;28;20034;-75
2021/01/26 10:35:35;;;;;;;5.05;3.78;;;1.10;99.90;;;;;;5023589;28;20033;-75
2021/01/26 10:38:30;;;;;;;6.68;3.33;;;1.10;99.90;;;;;;5005425;28;20056;-73
2021/01/26 10:41:13;;;;;;;4.75;3.00;;;1.10;99.90;;;;;;5009996;28;20063;-72
2021/01/26 10:43:40;;;;;;;4.95;2.95;;;1.10;99.90;;;;;;5027403;28;20494;-74
2021/01/26 10:46:11;;;;;;;4.45;3.03;;;1.10;99.90;;;;;;5024346;28;20037;-74
2021/01/26 10:48:42;;;;;;;4.55;3.03;;;1.10;99.90;;;;;;5044725;28;20021;-74
2021/01/26 10:51:25;;;;;;;4.68;2.88;;;1.20;99.90;;;;;;5009560;28;20047;-74
2021/01/26 10:53:51;;;;;;;3.80;2.92;;;1.10;99.90;;;;;;5029309;28;20060;-74
2021/01/26 10:56:17;;;;;;;5.25;3.22;;;1.20;99.90;;;;;;5015924;28;20497;-74
2021/01/26 10:58:44;;;;;;;5.40;3.03;;;1.10;99.90;;;;;;5013149;28;20028;-73
2021/01/26 11:01:12;;;;;;;6.55;3.22;;;1.10;99.90;;;;;;5019272;28;20030;-73
2021/01/26 11:03:38;;;;;;;7.10;3.05;;;1.10;99.90;;;;;;5013681;28;20082;-74
2021/01/26 11:06:05;;;;;;;6.43;3.00;;;1.20;99.90;;;;;;5033293;28;20034;-72
2021/01/26 11:08:30;;;;;;;3.53;3.13;;;1.10;99.90;;;;;;5025672;28;20037;-74
2021/01/26 11:10:56;;;;;;;3.30;2.90;;;1.10;99.90;;;;;;5009324;28;20547;-74
2021/01/26 11:13:22;;;;;;;4.30;2.90;;;1.10;99.90;;;;;;5009217;28;20021;-74
2021/01/26 11:15:48;;;;;;;4.68;3.15;;;1.10;99.90;;;;;;5022399;28;20627;-74
2021/01/26 11:18:15;;;;;;;5.15;3.20;;;1.10;99.90;;;;;;5011510;28;20021;-75
2021/01/26 11:20:41;;;;;;;4.35;2.83;;;1.10;99.90;;;;;;5035698;28;20025;-74
2021/01/26 11:23:07;;;;;;;4.22;3.13;;;1.20;99.90;;;;;;4999382;28;20028;-74
2021/01/26 11:25:34;;;;;;;4.43;3.20;;;1.20;99.90;;;;;;5036428;28;20029;-73
2021/01/26 11:28:00;;;;;;;4.18;2.55;;;1.30;99.90;;;;;;5011321;28;20038;-73
2021/01/26 11:30:26;;;;;;;3.88;2.75;;;1.30;99.90;;;;;;5011857;28;20028;-74
2021/01/26 11:32:52;;;;;;;2.70;2.20;;;1.30;99.90;;;;;;5022430;28;20064;-74
2021/01/26 11:35:20;;;;;;;4.35;2.38;;;1.30;99.90;;;;;;5033668;28;20025;-73
2021/01/26 11:37:47;;;;;;;6.82;2.70;;;1.30;99.90;;;;;;5021098;28;20440;-73
2021/01/26 11:40:14;;;;;;;3.45;2.72;;;1.30;99.90;;;;;;5026406;28;20032;-73
2021/01/26 11:42:40;;;;;;;4.32;2.72;;;1.30;99.90;;;;;;5034979;28;20028;-74
2021/01/26 11:45:12;;;;;;;4.03;2.75;;;1.40;99.90;;;;;;5007951;28;20222;-74
2021/01/26 11:47:38;;;;;;;3.00;2.30;;;1.40;99.90;;;;;;5007251;28;20036;-73
2021/01/26 11:50:07;;;;;;;3.20;2.53;;;1.40;99.90;;;;;;5022922;28;20033;-72
2021/01/26 11:52:32;;;;;;;4.20;2.28;;;1.40;99.90;;;;;;5004687;28;20120;-73
2021/01/26 11:54:58;;;;;;;3.30;2.50;;;1.50;99.90;;;;;;5031518;28;20127;-74
2021/01/26 11:57:24;;;;;;;4.57;2.17;;;1.50;99.90;;;;;;5025700;28;20029;-72
2021/01/26 11:59:49;;;;;;;3.05;2.25;;;1.60;99.90;;;;;;5003290;28;20033;-73
2021/01/26 12:02:15;;;;;;;3.78;2.30;;;1.60;99.90;;;;;;5005652;28;20104;-73
2021/01/26 12:04:41;;;;;;;3.63;2.03;;;1.60;99.90;;;;;;5024189;28;20141;-73
2021/01/26 12:07:07;;;;;;;2.65;2.05;;;1.60;99.90;;;;;;5003359;28;20038;-73
2021/01/26 12:09:33;;;;;;;3.40;2.30;;;1.60;99.90;;;;;;5022308;28;20060;-74
2021/01/26 12:11:59;;;;;;;3.00;2.30;;;1.60;99.90;;;;;;5007254;28;20029;-71
2021/01/26 12:14:25;;;;;;;3.13;2.10;;;1.60;99.90;;;;;;4987140;28;20030;-73
2021/01/26 12:16:50;;;;;;;2.88;2.20;;;1.60;99.90;;;;;;5006422;28;20524;-74
2021/01/26 12:19:17;;;;;;;2.25;1.60;;;1.60;99.90;;;;;;5004057;28;20040;-74
2021/01/26 12:21:44;;;;;;;2.22;1.80;;;1.60;99.90;;;;;;5022291;28;20021;-74
2021/01/26 12:24:10;;;;;;;3.03;1.70;;;1.60;99.90;;;;;;5008303;28;20036;-73
2021/01/26 12:26:36;;;;;;;2.72;2.08;;;1.70;99.90;;;;;;5007725;28;20565;-74
2021/01/26 12:29:01;;;;;;;3.10;2.13;;;1.70;99.90;;;;;;5025428;28;20117;-74
2021/01/26 12:31:27;;;;;;;3.28;2.10;;;1.70;99.90;;;;;;5008963;28;20036;-73
2021/01/26 12:33:53;;;;;;;1.85;1.60;;;1.70;99.90;;;;;;5015114;28;20022;-75
2021/01/26 12:36:18;;;;;;;2.10;1.63;;;1.70;99.90;;;;;;5023876;28;20544;-71
2021/01/26 12:38:44;;;;;;;2.83;1.98;;;1.70;99.90;;;;;;5007374;28;20029;-71
2021/01/26 12:41:10;;;;;;;2.35;2.15;;;1.70;99.90;;;;;;5016024;28;20017;-73
2021/01/26 12:43:35;;;;;;;3.65;2.70;;;1.70;99.90;;;;;;5018136;28;20029;-74
2021/01/26 12:46:01;;;;;;;3.05;2.17;;;1.90;99.90;;;;;;5024833;28;20044;-71
2021/01/26 12:48:27;;;;;;;2.30;1.88;;;1.90;99.90;;;;;;5018108;28;20036;-74
2021/01/26 12:50:53;;;;;;;4.07;2.80;;;2.10;99.90;;;;;;5015838;28;20072;-74
2021/01/26 12:53:19;;;;;;;3.75;2.53;;;2.10;99.90;;;;;;5013776;28;20029;-74
2021/01/26 12:55:45;;;;;;;3.25;2.60;;;2.20;99.90;;;;;;5039698;28;20074;-75
2021/01/26 12:58:10;;;;;;;3.65;2.15;;;2.20;99.90;;;;;;5012630;28;20044;-74
2021/01/26 13:00:36;;;;;;;2.65;2.00;;;2.30;99.90;;;;;;5032608;28;20018;-74
2021/01/26 13:03:03;;;;;;;2.33;2.08;;;2.30;99.90;;;;;;5009173;28;20393;-73
2021/01/26 13:05:29;;;;;;;2.17;1.70;;;2.30;99.90;;;;;;5010097;28;20079;-72
2021/01/26 13:07:55;;;;;;;2.78;1.85;;;2.20;99.90;;;;;;5025063;28;20029;-73
2021/01/26 13:10:21;;;;;;;3.42;2.30;;;2.20;99.90;;;;;;5032172;28;20025;-73
2021/01/26 13:12:47;;;;;;;2.58;2.05;;;2.20;99.90;;;;;;5040593;28;20035;-72
2021/01/26 13:15:16;;;;;;;2.95;2.20;;;2.20;99.90;;;;;;5038354;28;20665;-74
2021/01/26 13:17:43;;;;;;;2.00;1.80;;;2.10;99.90;;;;;;5039163;28;20032;-73